Accueil
METAR-TAF:

METAR-TAF

Aéroports :

Newquay Cornwall, Angleterre

Aéroport de Newquay Cornouailles

latitude: 50-26N, longitude: 005-00W, altitude: 119 m

Observation

Le bulletin a été fait il y a 8 heures et 28 minutes, à 17:20 UTC
Vent 24 kt de sud-ouest avec des rafales jusqu'à 35 kt
Température 13°C
Humidité 72%
Pression 1015 hPa
Visibilité 10 km ou plus
Nuages épars à une hauteur de 3000 ft

METAR: EGHQ 161720Z 22024G35KT 9999 SCT030 13/08 Q1015

Heure: 02:48 (01:48 UTC)

Prévision

Le bulletin a été fait il y a 8 heures et 46 minutes, à 17:02 UTC
Prévision valable du 16 à 18 UTC au 16 à 21 UTC
Vent 28 kt de sud/sud-ouest avec des rafales jusqu'à 40 kt
Visibilité 10 km ou plus
Nuages épars à une hauteur de 3000 ft
Evoluant progressivement
du 16 à 18 UTC au 16 à 21 UTC
Vent 15 kt de sud-ouest avec des rafales jusqu'à 30 kt

TAF: EGHQ 161702Z 1618/1621 20028G40KT 9999 SCT030 BECMG 1618/1621 23015G30KT

Observations et prévisions météorologiques de plus de 4000 aéroports (messages METAR et TAF).

Les stations disponibles sont représentées par des disques jaunes et rouges sur la carte.

Passer la souris dessus pour voir le nom de la station.

Cliquer dessus pour voir les observations et prévisions météorologiques.

Pour changer de carte: cliquez sur les boutons verts avec une croix noire pour zoomer, sur le bouton vert avec un tiret pour effectuer un zoom arrière, ou sur les flèches vertes pour les cartes adjacentes.


METAR-TAF: